createdAt,value
2022-09-06T00:00:59.793Z,22.69
2022-09-06T00:03:28.235Z,22.75
2022-09-06T00:05:55.271Z,22.85
2022-09-06T00:08:21.944Z,22.81
2022-09-06T00:10:48.512Z,22.79
2022-09-06T00:13:15.125Z,22.77
2022-09-06T00:15:41.839Z,22.78
2022-09-06T00:18:08.822Z,22.79
2022-09-06T00:20:38.938Z,22.79
2022-09-06T00:23:06.066Z,22.74
2022-09-06T00:25:33.477Z,22.79
2022-09-06T00:28:02.444Z,22.75
2022-09-06T00:30:29.978Z,22.68
2022-09-06T00:32:57.199Z,22.70
2022-09-06T00:35:25.801Z,22.64
2022-09-06T00:37:56.680Z,22.64
2022-09-06T00:40:23.327Z,22.62
2022-09-06T00:42:49.911Z,22.61
2022-09-06T00:45:16.543Z,22.57
2022-09-06T00:47:44.901Z,22.59
2022-09-06T00:50:14.512Z,22.56
2022-09-06T00:52:43.111Z,22.55
2022-09-06T00:55:10.324Z,22.54
2022-09-06T00:57:37.154Z,22.51
2022-09-06T01:00:08.693Z,22.47
2022-09-06T01:02:36.339Z,22.46
2022-09-06T01:05:05.085Z,22.44
2022-09-06T01:07:40.726Z,22.42
2022-09-06T01:10:19.640Z,22.41
2022-09-06T01:12:46.174Z,22.43
2022-09-06T01:15:47.704Z,22.38
2022-09-06T01:18:44.493Z,22.34
2022-09-06T01:22:02.014Z,22.34
2022-09-06T01:24:37.459Z,22.33
2022-09-06T01:27:37.763Z,22.28
2022-09-06T01:30:10.197Z,22.26
2022-09-06T01:32:55.106Z,22.26
2022-09-06T01:35:36.911Z,22.22
2022-09-06T01:38:05.720Z,22.21
2022-09-06T01:40:36.484Z,22.18
2022-09-06T01:43:11.160Z,22.15
2022-09-06T01:45:49.847Z,22.13
2022-09-06T01:48:40.113Z,22.15
2022-09-06T01:51:25.886Z,22.17
2022-09-06T01:54:23.612Z,22.17
2022-09-06T01:57:12.188Z,22.09
2022-09-06T02:00:11.106Z,22.00
2022-09-06T02:03:03.003Z,21.83
2022-09-06T02:05:35.006Z,21.66
2022-09-06T02:08:10.891Z,21.44
2022-09-06T02:10:44.397Z,21.35
2022-09-06T02:13:15.351Z,21.30
2022-09-06T02:15:52.227Z,21.30
2022-09-06T02:18:26.838Z,21.29
2022-09-06T02:20:56.940Z,21.27
2022-09-06T02:23:28.740Z,21.30
2022-09-06T02:26:05.491Z,21.21
2022-09-06T02:28:32.076Z,21.25
2022-09-06T02:31:04.217Z,21.25
2022-09-06T02:33:33.426Z,21.24
2022-09-06T02:36:06.934Z,21.13
2022-09-06T02:38:37.066Z,21.06
2022-09-06T02:41:05.649Z,21.02
2022-09-06T02:43:32.618Z,20.96
2022-09-06T02:45:59.260Z,20.96
2022-09-06T02:48:26.031Z,20.96
2022-09-06T02:50:52.654Z,20.97
2022-09-06T02:53:19.350Z,20.97
2022-09-06T02:55:47.686Z,20.93
2022-09-06T02:58:15.357Z,20.87
2022-09-06T03:00:42.301Z,20.84
2022-09-06T03:03:08.891Z,20.84
2022-09-06T03:05:35.860Z,20.91
2022-09-06T03:08:02.645Z,20.93
2022-09-06T03:10:29.525Z,20.97
2022-09-06T03:12:56.182Z,20.93
2022-09-06T03:15:22.796Z,20.80
2022-09-06T03:17:49.469Z,20.71
2022-09-06T03:20:16.078Z,20.67
2022-09-06T03:22:42.663Z,20.72
2022-09-06T03:25:10.586Z,20.80
2022-09-06T03:27:37.179Z,20.85
2022-09-06T03:30:05.951Z,20.87
2022-09-06T03:32:32.638Z,20.91
2022-09-06T03:34:59.670Z,20.87
2022-09-06T03:37:26.347Z,20.85
2022-09-06T03:39:53.456Z,20.83
2022-09-06T03:42:20.474Z,20.80
2022-09-06T03:44:47.095Z,20.78
2022-09-06T03:47:17.532Z,20.71
2022-09-06T03:49:46.804Z,20.67
2022-09-06T03:52:13.950Z,20.54
2022-09-06T03:54:40.851Z,20.51
2022-09-06T03:57:07.390Z,20.47
2022-09-06T03:59:34.004Z,20.49
2022-09-06T04:02:00.615Z,20.50
2022-09-06T04:04:27.259Z,20.50
2022-09-06T04:06:53.797Z,20.50
2022-09-06T04:09:20.453Z,20.52
2022-09-06T04:11:46.985Z,20.57
2022-09-06T04:14:13.573Z,20.57
2022-09-06T04:16:40.223Z,20.58
2022-09-06T04:19:06.976Z,20.46
2022-09-06T04:21:33.742Z,20.39
2022-09-06T04:24:00.311Z,20.42
2022-09-06T04:26:27.192Z,20.41
2022-09-06T04:28:53.802Z,20.45
2022-09-06T04:31:20.400Z,20.47
2022-09-06T04:33:47.084Z,20.49
2022-09-06T04:36:13.804Z,20.50
2022-09-06T04:38:42.786Z,20.51
2022-09-06T04:41:11.467Z,20.53
2022-09-06T04:43:38.155Z,20.54
2022-09-06T04:46:25.030Z,20.53
2022-09-06T04:48:53.163Z,20.51
2022-09-06T04:51:20.171Z,20.51
2022-09-06T04:53:47.220Z,20.50
2022-09-06T04:56:16.850Z,20.49
2022-09-06T04:58:44.424Z,20.44
2022-09-06T05:01:11.294Z,20.47
2022-09-06T05:03:38.041Z,20.44
2022-09-06T05:06:24.461Z,20.43
2022-09-06T05:08:51.715Z,20.40
2022-09-06T05:11:18.755Z,20.43
2022-09-06T05:13:46.037Z,20.47
2022-09-06T05:16:12.849Z,20.48
2022-09-06T05:18:39.498Z,20.50
2022-09-06T05:21:06.277Z,20.47
2022-09-06T05:23:33.101Z,20.50
2022-09-06T05:25:59.643Z,20.51
2022-09-06T05:28:26.324Z,20.52
2022-09-06T05:30:53.040Z,20.51
2022-09-06T05:33:22.074Z,20.50
2022-09-06T05:35:49.623Z,20.49
2022-09-06T05:38:16.556Z,20.49
2022-09-06T05:40:43.459Z,20.48
2022-09-06T05:43:10.141Z,20.48
2022-09-06T05:45:36.867Z,20.45
2022-09-06T05:48:03.731Z,20.41
2022-09-06T05:50:30.313Z,20.50
2022-09-06T05:52:56.880Z,20.65
2022-09-06T05:55:23.500Z,20.83
2022-09-06T05:57:50.097Z,20.99
2022-09-06T06:00:16.843Z,21.14
2022-09-06T06:02:43.970Z,21.21
2022-09-06T06:05:10.618Z,21.25
2022-09-06T06:07:37.205Z,21.15
2022-09-06T06:10:04.491Z,21.19
2022-09-06T06:12:31.052Z,21.27
2022-09-06T06:14:57.636Z,21.26
2022-09-06T06:17:24.277Z,21.36
2022-09-06T06:19:51.194Z,21.43
2022-09-06T06:22:17.801Z,21.41
2022-09-06T06:24:44.345Z,21.38
2022-09-06T06:27:10.923Z,21.44
2022-09-06T06:29:37.510Z,21.50
2022-09-06T06:32:04.163Z,21.59
2022-09-06T06:34:31.195Z,21.65
2022-09-06T06:36:58.236Z,21.69
2022-09-06T06:39:24.934Z,21.77
2022-09-06T06:41:51.570Z,21.82
2022-09-06T06:44:18.233Z,21.94
2022-09-06T06:46:45.074Z,22.04
2022-09-06T06:49:11.631Z,22.15
2022-09-06T06:51:38.284Z,22.22
2022-09-06T06:54:05.878Z,22.27
2022-09-06T06:56:37.850Z,22.31
2022-09-06T06:59:07.088Z,22.32
2022-09-06T07:01:35.538Z,22.39
2022-09-06T07:04:02.858Z,22.44
2022-09-06T07:09:18.256Z,22.56
2022-09-06T07:11:45.158Z,22.60
2022-09-06T07:14:11.875Z,22.67
2022-09-06T07:16:39.652Z,22.74
2022-09-06T07:19:06.964Z,22.80
2022-09-06T07:24:08.434Z,22.97
2022-09-06T07:26:38.185Z,23.16
2022-09-06T07:29:06.323Z,23.31
2022-09-06T07:34:22.194Z,23.47
2022-09-06T07:36:51.677Z,23.41
2022-09-06T07:39:18.259Z,23.45
2022-09-06T07:41:44.950Z,23.42
2022-09-06T07:44:11.787Z,23.37
2022-09-06T07:46:38.793Z,23.38
2022-09-06T07:49:06.582Z,23.43
2022-09-06T07:51:33.385Z,23.45
2022-09-06T07:54:28.840Z,23.54
2022-09-06T07:56:46.786Z,23.57
2022-09-06T07:59:13.465Z,23.67
2022-09-06T08:01:40.485Z,23.71
2022-09-06T08:04:14.266Z,23.79
2022-09-06T08:09:30.726Z,23.93
2022-09-06T08:11:57.445Z,24.00
2022-09-06T08:14:24.090Z,24.04
2022-09-06T08:16:50.942Z,24.10
2022-09-06T08:19:18.524Z,24.15
2022-09-06T08:21:45.218Z,24.18
2022-09-06T08:24:11.808Z,24.28
2022-09-06T08:26:40.710Z,24.36
2022-09-06T08:29:08.814Z,24.45
2022-09-06T08:31:38.193Z,24.47
2022-09-06T08:34:05.462Z,24.52
2022-09-06T08:36:32.737Z,24.53
2022-09-06T08:39:05.426Z,24.56
2022-09-06T08:41:35.085Z,24.58
2022-09-06T08:47:06.526Z,24.71
2022-09-06T08:49:38.360Z,24.76
2022-09-06T08:52:13.923Z,24.88
2022-09-06T08:54:48.902Z,24.86
2022-09-06T08:57:21.603Z,24.95
2022-09-06T08:59:50.638Z,24.93
2022-09-06T09:02:20.220Z,25.02
2022-09-06T09:05:02.372Z,25.02
2022-09-06T09:07:45.024Z,25.09
2022-09-06T09:10:22.032Z,25.13
2022-09-06T09:12:50.010Z,25.22
2022-09-06T09:15:18.925Z,25.28
2022-09-06T09:17:47.538Z,25.31
2022-09-06T09:20:14.271Z,25.32
2022-09-06T09:22:42.659Z,25.43
2022-09-06T09:25:16.361Z,25.52
2022-09-06T09:27:44.739Z,25.60
2022-09-06T09:32:58.668Z,25.70
2022-09-06T09:35:36.898Z,25.77
2022-09-06T09:38:13.053Z,25.75
2022-09-06T09:40:42.814Z,25.80
2022-09-06T09:43:15.391Z,25.83
2022-09-06T09:45:43.360Z,25.77
2022-09-06T09:48:17.647Z,25.81
2022-09-06T09:50:44.436Z,25.89
2022-09-06T09:53:13.818Z,25.94
2022-09-06T09:55:41.292Z,25.98
2022-09-06T09:58:20.359Z,26.02
2022-09-06T10:00:46.973Z,26.03
2022-09-06T10:03:13.548Z,25.97
2022-09-06T10:05:41.412Z,25.95
2022-09-06T10:08:13.088Z,26.01
2022-09-06T10:10:43.158Z,25.97
2022-09-06T10:13:20.499Z,26.00
2022-09-06T10:15:48.161Z,26.08
2022-09-06T10:18:20.785Z,26.15
2022-09-06T10:20:54.513Z,26.15
2022-09-06T10:26:49.387Z,26.24
2022-09-06T10:29:38.420Z,26.24
2022-09-06T10:32:42.612Z,26.28
2022-09-06T10:35:18.904Z,26.31
2022-09-06T10:38:13.490Z,26.36
2022-09-06T10:40:57.289Z,26.38
2022-09-06T10:43:27.599Z,26.41
2022-09-06T10:45:58.387Z,26.46
2022-09-06T10:48:35.066Z,26.55
2022-09-06T10:51:10.038Z,26.50
2022-09-06T10:53:51.755Z,26.39
2022-09-06T10:56:36.244Z,26.33
2022-09-06T11:02:02.855Z,26.42
2022-09-06T11:07:38.213Z,26.52
2022-09-06T11:10:14.443Z,26.58
2022-09-06T11:12:59.251Z,26.58
2022-09-06T11:15:31.737Z,26.59
2022-09-06T11:18:09.744Z,26.65
2022-09-06T11:20:42.723Z,26.61
2022-09-06T11:23:12.113Z,26.58
2022-09-06T11:26:09.846Z,26.64
2022-09-06T11:28:55.597Z,26.76
2022-09-06T11:34:33.946Z,26.85
2022-09-06T11:37:03.791Z,26.86
2022-09-06T11:42:44.627Z,27.03
2022-09-06T11:45:11.174Z,27.07
2022-09-06T11:47:42.024Z,27.08
2022-09-06T11:51:15.731Z,27.13
2022-09-06T11:53:51.094Z,27.26
2022-09-06T11:56:47.029Z,27.29
2022-09-06T11:59:16.278Z,27.35
2022-09-06T12:02:00.243Z,27.37
2022-09-06T12:05:00.455Z,27.42
2022-09-06T12:07:28.515Z,27.47
2022-09-06T12:09:55.095Z,27.52
2022-09-06T12:12:40.269Z,27.58
2022-09-06T12:15:25.565Z,27.50
2022-09-06T12:17:52.752Z,27.56
2022-09-06T12:20:48.592Z,27.57
2022-09-06T12:23:35.522Z,27.64
2022-09-06T12:26:04.245Z,27.69
2022-09-06T12:28:34.980Z,27.81
2022-09-06T12:31:02.244Z,27.86
2022-09-06T12:33:32.935Z,27.93
2022-09-06T12:36:22.924Z,27.85
2022-09-06T12:38:57.562Z,27.83
2022-09-06T12:41:26.969Z,27.77
2022-09-06T12:43:55.890Z,27.75
2022-09-06T12:46:25.655Z,27.80
2022-09-06T12:49:09.498Z,27.86
2022-09-06T12:51:38.459Z,28.00
2022-09-06T12:54:23.405Z,28.19
2022-09-06T12:56:51.204Z,28.41
2022-09-06T12:59:17.785Z,28.47
2022-09-06T13:01:49.566Z,28.61
2022-09-06T13:04:32.753Z,28.79
2022-09-06T13:07:03.101Z,28.99
2022-09-06T13:09:31.793Z,29.21
2022-09-06T13:12:18.288Z,29.43
2022-09-06T13:14:44.977Z,29.57
2022-09-06T13:17:29.731Z,29.58
2022-09-06T13:19:58.283Z,29.64
2022-09-06T13:22:43.742Z,29.64
2022-09-06T13:25:23.959Z,29.80
2022-09-06T13:27:58.552Z,29.97
2022-09-06T13:30:37.835Z,30.08
2022-09-06T13:33:07.048Z,30.10
2022-09-06T13:35:37.337Z,30.02
2022-09-06T13:38:31.187Z,30.23
2022-09-06T13:41:16.619Z,30.21
2022-09-06T13:43:47.739Z,30.33
2022-09-06T13:46:14.520Z,30.54
2022-09-06T13:48:43.217Z,30.70
2022-09-06T13:51:09.925Z,30.83
2022-09-06T13:53:36.579Z,30.91
2022-09-06T13:56:05.172Z,30.94
2022-09-06T13:58:31.765Z,30.80
2022-09-06T14:00:58.696Z,31.01
2022-09-06T14:03:30.999Z,30.94
2022-09-06T14:06:00.372Z,31.20
2022-09-06T14:08:43.844Z,31.36
2022-09-06T14:11:17.490Z,31.52
2022-09-06T14:13:44.394Z,31.75
2022-09-06T14:16:11.557Z,32.08
2022-09-06T14:18:38.357Z,31.74
2022-09-06T14:21:05.756Z,31.95
2022-09-06T14:23:32.440Z,31.99
2022-09-06T14:26:01.859Z,32.07
2022-09-06T14:28:31.208Z,32.30
2022-09-06T14:30:57.930Z,32.55
2022-09-06T14:33:24.745Z,32.85
2022-09-06T14:35:51.344Z,32.90
2022-09-06T14:38:17.941Z,32.79
2022-09-06T14:40:44.631Z,32.50
2022-09-06T14:43:11.355Z,31.84
2022-09-06T14:45:38.010Z,31.64
2022-09-06T14:48:05.635Z,31.43
2022-09-06T14:50:32.405Z,31.31
2022-09-06T14:52:59.358Z,31.21
2022-09-06T14:55:28.141Z,31.45
2022-09-06T14:57:55.080Z,31.23
2022-09-06T15:00:22.871Z,31.23
2022-09-06T15:02:49.500Z,30.95
2022-09-06T15:05:16.391Z,30.74
2022-09-06T15:07:43.275Z,30.49
2022-09-06T15:10:10.403Z,30.25
2022-09-06T15:12:37.565Z,30.03
2022-09-06T15:15:05.382Z,29.79
2022-09-06T15:17:34.410Z,29.60
2022-09-06T15:20:01.289Z,29.40
2022-09-06T15:22:28.080Z,29.10
2022-09-06T15:24:54.848Z,29.01
2022-09-06T15:27:21.716Z,28.95
2022-09-06T15:29:48.366Z,28.88
2022-09-06T15:32:14.979Z,28.92
2022-09-06T15:34:41.604Z,28.89
2022-09-06T15:37:08.319Z,28.80
2022-09-06T15:39:35.088Z,28.78
2022-09-06T15:42:01.773Z,28.88
2022-09-06T15:44:28.515Z,28.92
2022-09-06T15:47:00.736Z,28.87
2022-09-06T15:49:32.367Z,28.85
2022-09-06T15:52:01.522Z,28.82
2022-09-06T15:54:47.928Z,28.65
2022-09-06T15:57:16.942Z,28.48
2022-09-06T15:59:44.091Z,28.37
2022-09-06T16:02:14.323Z,28.36
2022-09-06T16:04:41.049Z,28.60
2022-09-06T16:07:07.768Z,28.61
2022-09-06T16:09:34.508Z,28.55
2022-09-06T16:12:01.144Z,28.45
2022-09-06T16:14:29.173Z,28.42
2022-09-06T16:16:56.452Z,28.54
2022-09-06T16:19:25.949Z,28.63
2022-09-06T16:21:52.755Z,28.65
2022-09-06T16:24:19.413Z,28.69
2022-09-06T16:26:46.769Z,28.61
2022-09-06T16:29:16.430Z,28.60
2022-09-06T16:31:43.185Z,28.59
2022-09-06T16:34:10.490Z,28.58
2022-09-06T16:36:37.836Z,28.42
2022-09-06T16:39:06.146Z,28.34
2022-09-06T16:41:44.914Z,28.27
2022-09-06T16:44:17.578Z,28.13
2022-09-06T16:46:49.712Z,28.06
2022-09-06T16:49:18.107Z,28.17
2022-09-06T16:51:45.905Z,28.07
2022-09-06T16:54:14.075Z,28.11
2022-09-06T16:56:41.706Z,28.01
2022-09-06T16:59:10.364Z,28.07
2022-09-06T17:01:38.983Z,28.16
2022-09-06T17:04:05.947Z,28.00
2022-09-06T17:06:34.210Z,27.81
2022-09-06T17:09:00.963Z,27.68
2022-09-06T17:11:29.001Z,27.60
2022-09-06T17:13:57.306Z,27.63
2022-09-06T17:16:43.604Z,27.75
2022-09-06T17:19:10.816Z,27.69
2022-09-06T17:21:48.999Z,27.61
2022-09-06T17:24:15.793Z,27.61
2022-09-06T17:26:42.630Z,27.78
2022-09-06T17:29:10.541Z,27.70
2022-09-06T17:31:37.917Z,27.61
2022-09-06T17:34:05.416Z,27.60
2022-09-06T17:36:33.506Z,27.61
2022-09-06T17:39:08.947Z,27.50
2022-09-06T17:41:39.007Z,27.51
2022-09-06T17:44:07.655Z,27.42
2022-09-06T17:46:34.281Z,27.33
2022-09-06T17:49:01.006Z,27.30
2022-09-06T17:51:28.081Z,27.24
2022-09-06T17:53:54.857Z,27.20
2022-09-06T17:56:22.030Z,27.19
2022-09-06T17:59:09.941Z,27.21
2022-09-06T18:01:38.964Z,27.27
2022-09-06T18:04:06.455Z,27.22
2022-09-06T18:06:34.548Z,27.22
2022-09-06T18:09:10.075Z,27.13
2022-09-06T18:11:39.844Z,27.07
2022-09-06T18:14:12.502Z,27.08
2022-09-06T18:16:40.534Z,26.98
2022-09-06T18:19:08.458Z,26.94
2022-09-06T18:21:38.113Z,26.95
2022-09-06T18:24:05.493Z,26.86
2022-09-06T18:26:32.401Z,26.74
2022-09-06T18:28:59.023Z,26.71
2022-09-06T18:31:27.296Z,26.69
2022-09-06T18:33:58.091Z,26.77
2022-09-06T18:36:28.700Z,26.73
2022-09-06T18:39:02.519Z,26.67
2022-09-06T18:41:47.534Z,26.66
2022-09-06T18:44:14.658Z,26.65
2022-09-06T18:46:41.258Z,26.64
2022-09-06T18:49:08.142Z,26.52
2022-09-06T18:51:35.080Z,26.53
2022-09-06T18:54:02.343Z,26.52
2022-09-06T18:56:29.000Z,26.35
2022-09-06T18:59:00.706Z,26.23
2022-09-06T19:01:29.545Z,26.11
2022-09-06T19:03:57.744Z,26.01
2022-09-06T19:06:24.424Z,25.93
2022-09-06T19:08:53.825Z,25.86
2022-09-06T19:11:21.915Z,25.87
2022-09-06T19:13:52.769Z,25.85
2022-09-06T19:16:20.644Z,25.76
2022-09-06T19:18:47.283Z,25.73
2022-09-06T19:21:17.533Z,25.68
2022-09-06T19:23:47.106Z,25.65
2022-09-06T19:26:22.416Z,25.63
2022-09-06T19:28:57.753Z,25.63
2022-09-06T19:31:27.609Z,25.67
2022-09-06T19:33:55.201Z,25.71
2022-09-06T19:36:23.392Z,25.75
2022-09-06T19:39:04.015Z,25.77
2022-09-06T19:41:34.038Z,25.83
2022-09-06T19:44:01.724Z,25.81
2022-09-06T19:46:28.360Z,25.79
2022-09-06T19:48:58.410Z,25.75
2022-09-06T19:51:25.385Z,25.79
2022-09-06T19:53:54.391Z,25.75
2022-09-06T19:56:33.542Z,25.71
2022-09-06T19:59:06.284Z,25.73
2022-09-06T20:01:34.510Z,25.68
2022-09-06T20:04:02.916Z,25.56
2022-09-06T20:06:30.606Z,25.49
2022-09-06T20:08:58.723Z,25.40
2022-09-06T20:11:28.280Z,25.35
2022-09-06T20:13:55.330Z,25.30
2022-09-06T20:16:24.860Z,25.31
2022-09-06T20:18:52.523Z,25.25
2022-09-06T20:21:19.227Z,25.20
2022-09-06T20:23:50.673Z,25.16
2022-09-06T20:26:18.445Z,25.05
2022-09-06T20:28:45.580Z,25.00
2022-09-06T20:31:16.434Z,24.95
2022-09-06T20:33:48.484Z,24.90
2022-09-06T20:36:17.112Z,24.87
2022-09-06T20:38:45.120Z,24.85
2022-09-06T20:41:15.061Z,24.81
2022-09-06T20:43:42.631Z,24.77
2022-09-06T20:46:14.150Z,24.74
2022-09-06T20:48:44.654Z,24.74
2022-09-06T20:51:18.841Z,24.72
2022-09-06T20:53:48.127Z,24.70
2022-09-06T20:56:17.225Z,24.69
2022-09-06T20:58:49.360Z,24.67
2022-09-06T21:01:22.888Z,24.65
2022-09-06T21:03:52.309Z,24.62
2022-09-06T21:06:20.474Z,24.58
2022-09-06T21:08:48.001Z,24.51
2022-09-06T21:11:15.081Z,24.51
2022-09-06T21:13:41.817Z,24.47
2022-09-06T21:16:09.104Z,24.51
2022-09-06T21:18:36.231Z,24.48
2022-09-06T21:21:06.055Z,24.47
2022-09-06T21:23:38.202Z,24.47
2022-09-06T21:26:10.230Z,24.48
2022-09-06T21:28:38.983Z,24.51
2022-09-06T21:31:18.107Z,24.52
2022-09-06T21:33:47.602Z,24.56
2022-09-06T21:36:16.731Z,24.54
2022-09-06T21:38:48.727Z,24.52
2022-09-06T21:41:18.330Z,24.55
2022-09-06T21:43:45.566Z,24.56
2022-09-06T21:46:18.347Z,24.56
2022-09-06T21:48:47.453Z,24.58
2022-09-06T21:51:16.591Z,24.59
2022-09-06T21:53:46.150Z,24.61
2022-09-06T21:56:13.403Z,24.61
2022-09-06T21:58:40.412Z,24.60
2022-09-06T22:01:07.820Z,24.57
2022-09-06T22:03:42.530Z,24.59
2022-09-06T22:06:13.460Z,24.56
2022-09-06T22:08:43.268Z,24.54
2022-09-06T22:11:09.971Z,24.52
2022-09-06T22:13:36.739Z,24.52
2022-09-06T22:16:07.814Z,24.52
2022-09-06T22:18:34.842Z,24.52
2022-09-06T22:21:27.769Z,24.49
2022-09-06T22:23:59.526Z,24.48
2022-09-06T22:26:28.588Z,24.50
2022-09-06T22:29:05.130Z,24.44
2022-09-06T22:31:33.487Z,24.42
2022-09-06T22:34:00.490Z,24.37
2022-09-06T22:36:27.955Z,24.34
2022-09-06T22:38:58.648Z,24.37
2022-09-06T22:41:27.236Z,24.35
2022-09-06T22:43:54.211Z,24.31
2022-09-06T22:46:21.238Z,24.30
2022-09-06T22:48:49.408Z,24.26
2022-09-06T22:51:16.279Z,24.21
2022-09-06T22:53:42.911Z,24.21
2022-09-06T22:56:09.553Z,24.20
2022-09-06T22:58:36.257Z,24.22
2022-09-06T23:01:12.074Z,24.14
2022-09-06T23:03:39.301Z,24.14
2022-09-06T23:06:06.053Z,24.09
2022-09-06T23:08:34.687Z,24.09
2022-09-06T23:11:07.138Z,24.07
2022-09-06T23:13:34.715Z,24.06
2022-09-06T23:16:06.635Z,24.03
2022-09-06T23:18:33.831Z,24.00
2022-09-06T23:21:20.870Z,24.02
2022-09-06T23:23:49.413Z,24.01
2022-09-06T23:26:19.324Z,24.06
2022-09-06T23:28:46.196Z,23.93
2022-09-06T23:31:15.150Z,23.89
2022-09-06T23:33:42.084Z,23.61
2022-09-06T23:36:11.348Z,23.13
2022-09-06T23:38:39.652Z,22.77
2022-09-06T23:41:08.462Z,22.35
2022-09-06T23:43:35.110Z,21.98
2022-09-06T23:46:01.763Z,21.81
2022-09-06T23:48:28.870Z,21.68
2022-09-06T23:50:55.644Z,21.45
2022-09-06T23:53:22.226Z,21.30
2022-09-06T23:55:48.815Z,21.16
2022-09-06T23:58:15.703Z,21.07
